sensor_id;sensor_type;location;lat;lon;timestamp;pressure;altitude;pressure_sealevel;temperature;humidity
71948;BME280;63257;55.082;38.772;2023-04-06T00:02:02;100444.84;;;5.70;71.12
71948;BME280;63257;55.082;38.772;2023-04-06T00:04:28;100432.88;;;5.60;71.56
71948;BME280;63257;55.082;38.772;2023-04-06T00:06:54;100440.63;;;5.63;71.60
71948;BME280;63257;55.082;38.772;2023-04-06T00:09:20;100439.97;;;5.55;71.77
71948;BME280;63257;55.082;38.772;2023-04-06T00:11:46;100440.84;;;5.55;71.85
71948;BME280;63257;55.082;38.772;2023-04-06T00:14:12;100442.59;;;5.55;71.70
71948;BME280;63257;55.082;38.772;2023-04-06T00:16:39;100448.78;;;5.52;71.95
71948;BME280;63257;55.082;38.772;2023-04-06T00:19:05;100442.78;;;5.47;72.18
71948;BME280;63257;55.082;38.772;2023-04-06T00:21:31;100446.22;;;5.49;71.99
71948;BME280;63257;55.082;38.772;2023-04-06T00:23:57;100455.03;;;5.45;72.24
71948;BME280;63257;55.082;38.772;2023-04-06T00:26:24;100448.19;;;5.39;72.54
71948;BME280;63257;55.082;38.772;2023-04-06T00:28:49;100462.06;;;5.44;72.12
71948;BME280;63257;55.082;38.772;2023-04-06T00:31:17;100456.00;;;5.41;72.57
71948;BME280;63257;55.082;38.772;2023-04-06T00:33:43;100453.47;;;5.38;72.72
71948;BME280;63257;55.082;38.772;2023-04-06T00:36:09;100457.06;;;5.34;72.89
71948;BME280;63257;55.082;38.772;2023-04-06T00:38:35;100457.22;;;5.28;73.19
71948;BME280;63257;55.082;38.772;2023-04-06T00:41:03;100463.28;;;5.30;73.24
71948;BME280;63257;55.082;38.772;2023-04-06T00:43:29;100459.81;;;5.29;72.72
71948;BME280;63257;55.082;38.772;2023-04-06T00:45:55;100461.66;;;5.24;73.17
71948;BME280;63257;55.082;38.772;2023-04-06T00:48:21;100461.69;;;5.22;73.31
71948;BME280;63257;55.082;38.772;2023-04-06T00:50:47;100466.97;;;5.21;73.30
71948;BME280;63257;55.082;38.772;2023-04-06T00:53:14;100467.00;;;5.19;73.34
71948;BME280;63257;55.082;38.772;2023-04-06T00:55:40;100453.25;;;5.11;73.82
71948;BME280;63257;55.082;38.772;2023-04-06T00:58:06;100461.06;;;5.13;73.92
71948;BME280;63257;55.082;38.772;2023-04-06T01:00:41;100457.59;;;5.10;73.95
71948;BME280;63257;55.082;38.772;2023-04-06T01:03:12;100451.59;;;5.07;73.83
71948;BME280;63257;55.082;38.772;2023-04-06T01:05:42;100455.16;;;5.03;73.98
71948;BME280;63257;55.082;38.772;2023-04-06T01:08:18;100447.34;;;5.00;74.18
71948;BME280;63257;55.082;38.772;2023-04-06T01:10:45;100461.31;;;5.00;74.54
71948;BME280;63257;55.082;38.772;2023-04-06T01:13:23;100450.91;;;4.99;74.13
71948;BME280;63257;55.082;38.772;2023-04-06T01:16:00;100447.56;;;4.92;74.79
71948;BME280;63257;55.082;38.772;2023-04-06T01:18:45;100450.09;;;4.95;74.83
71948;BME280;63257;55.082;38.772;2023-04-06T01:21:16;100442.25;;;4.95;74.89
71948;BME280;63257;55.082;38.772;2023-04-06T01:23:54;100419.13;;;4.75;74.95
71948;BME280;63257;55.082;38.772;2023-04-06T01:26:28;100450.16;;;4.92;74.31
71948;BME280;63257;55.082;38.772;2023-04-06T01:28:57;100445.94;;;4.85;74.62
71948;BME280;63257;55.082;38.772;2023-04-06T01:31:27;100444.16;;;4.87;75.13
71948;BME280;63257;55.082;38.772;2023-04-06T01:33:53;100453.81;;;4.83;74.92
71948;BME280;63257;55.082;38.772;2023-04-06T01:36:23;100433.94;;;4.76;75.01
71948;BME280;63257;55.082;38.772;2023-04-06T01:38:56;100433.22;;;4.68;75.33
71948;BME280;63257;55.082;38.772;2023-04-06T01:41:30;100446.97;;;4.78;75.43
71948;BME280;63257;55.082;38.772;2023-04-06T01:43:58;100450.50;;;4.75;75.65
71948;BME280;63257;55.082;38.772;2023-04-06T01:46:27;100445.31;;;4.73;75.67
71948;BME280;63257;55.082;38.772;2023-04-06T01:48:53;100454.00;;;4.75;75.19
71948;BME280;63257;55.082;38.772;2023-04-06T01:51:28;100448.84;;;4.71;75.82
71948;BME280;63257;55.082;38.772;2023-04-06T01:53:58;100449.78;;;4.68;75.05
71948;BME280;63257;55.082;38.772;2023-04-06T01:56:35;100442.91;;;4.63;75.82
71948;BME280;63257;55.082;38.772;2023-04-06T01:59:18;100438.81;;;4.51;75.52
71948;BME280;63257;55.082;38.772;2023-04-06T02:01:44;100453.34;;;4.64;75.83
71948;BME280;63257;55.082;38.772;2023-04-06T02:04:11;100461.28;;;4.59;75.94
71948;BME280;63257;55.082;38.772;2023-04-06T02:06:39;100450.97;;;4.53;75.95
71948;BME280;63257;55.082;38.772;2023-04-06T02:09:07;100435.50;;;4.43;76.13
71948;BME280;63257;55.082;38.772;2023-04-06T02:11:33;100434.59;;;4.44;76.64
71948;BME280;63257;55.082;38.772;2023-04-06T02:13:59;100465.72;;;4.57;76.25
71948;BME280;63257;55.082;38.772;2023-04-06T02:16:49;100462.28;;;4.54;76.68
71948;BME280;63257;55.082;38.772;2023-04-06T02:19:16;100462.28;;;4.54;76.40
71948;BME280;63257;55.082;38.772;2023-04-06T02:21:42;100464.06;;;4.52;76.45
71948;BME280;63257;55.082;38.772;2023-04-06T02:24:08;100464.06;;;4.52;76.70
71948;BME280;63257;55.082;38.772;2023-04-06T02:26:34;100457.22;;;4.45;76.80
71948;BME280;63257;55.082;38.772;2023-04-06T02:29:00;100460.72;;;4.45;77.03
71948;BME280;63257;55.082;38.772;2023-04-06T02:31:28;100469.41;;;4.46;77.02
71948;BME280;63257;55.082;38.772;2023-04-06T02:33:54;100452.19;;;4.35;77.08
71948;BME280;63257;55.082;38.772;2023-04-06T02:36:20;100473.00;;;4.40;76.96
71948;BME280;63257;55.082;38.772;2023-04-06T02:38:46;100465.19;;;4.40;77.27
71948;BME280;63257;55.082;38.772;2023-04-06T02:41:11;100464.47;;;4.32;77.34
71948;BME280;63257;55.082;38.772;2023-04-06T02:43:38;100466.16;;;4.34;77.16
71948;BME280;63257;55.082;38.772;2023-04-06T02:46:31;100459.19;;;4.33;76.58
71948;BME280;63257;55.082;38.772;2023-04-06T02:48:56;100467.00;;;4.35;76.71
71948;BME280;63257;55.082;38.772;2023-04-06T02:51:27;100455.94;;;4.22;77.01
71948;BME280;63257;55.082;38.772;2023-04-06T02:54:00;100453.38;;;4.19;76.97
71948;BME280;63257;55.082;38.772;2023-04-06T02:56:26;100470.59;;;4.29;77.29
71948;BME280;63257;55.082;38.772;2023-04-06T02:58:52;100482.78;;;4.30;77.15
71948;BME280;63257;55.082;38.772;2023-04-06T03:01:20;100481.06;;;4.29;77.57
71948;BME280;63257;55.082;38.772;2023-04-06T03:03:51;100466.47;;;4.17;77.34
71948;BME280;63257;55.082;38.772;2023-04-06T03:06:22;100471.66;;;4.20;77.68
71948;BME280;63257;55.082;38.772;2023-04-06T03:08:53;100488.19;;;4.21;77.17
71948;BME280;63257;55.082;38.772;2023-04-06T03:11:19;100493.38;;;4.22;77.52
71948;BME280;63257;55.082;38.772;2023-04-06T03:13:48;100475.34;;;4.08;77.28
71948;BME280;63257;55.082;38.772;2023-04-06T03:16:14;100490.81;;;4.19;77.56
71948;BME280;63257;55.082;38.772;2023-04-06T03:18:41;100485.66;;;4.16;77.51
71948;BME280;63257;55.082;38.772;2023-04-06T03:21:07;100489.94;;;4.20;77.37
71948;BME280;63257;55.082;38.772;2023-04-06T03:23:43;100490.84;;;4.18;76.97
71948;BME280;63257;55.082;38.772;2023-04-06T03:26:10;100499.47;;;4.21;76.93
71948;BME280;63257;55.082;38.772;2023-04-06T03:28:36;100503.72;;;4.29;76.88
71948;BME280;63257;55.082;38.772;2023-04-06T03:31:04;100487.44;;;4.14;77.10
71948;BME280;63257;55.082;38.772;2023-04-06T03:33:54;100498.53;;;4.25;76.54
71948;BME280;63257;55.082;38.772;2023-04-06T03:36:31;100498.53;;;4.25;76.46
71948;BME280;63257;55.082;38.772;2023-04-06T03:38:58;100515.03;;;4.29;76.34
71948;BME280;63257;55.082;38.772;2023-04-06T03:41:24;100520.16;;;4.34;76.07
71948;BME280;63257;55.082;38.772;2023-04-06T03:43:56;100515.00;;;4.31;75.79
71948;BME280;63257;55.082;38.772;2023-04-06T03:46:22;100519.28;;;4.35;76.13
71948;BME280;63257;55.082;38.772;2023-04-06T03:48:52;100514.84;;;4.40;75.76
71948;BME280;63257;55.082;38.772;2023-04-06T03:51:20;100489.94;;;4.20;75.65
71948;BME280;63257;55.082;38.772;2023-04-06T03:53:47;100507.09;;;4.34;75.18
71948;BME280;63257;55.082;38.772;2023-04-06T03:56:13;100506.28;;;4.32;75.18
71948;BME280;63257;55.082;38.772;2023-04-06T03:58:38;100519.19;;;4.39;75.03
71948;BME280;63257;55.082;38.772;2023-04-06T04:01:04;100515.69;;;4.40;75.15
71948;BME280;63257;55.082;38.772;2023-04-06T04:03:31;100519.94;;;4.46;75.18
71948;BME280;63257;55.082;38.772;2023-04-06T04:05:57;100527.59;;;4.55;75.04
71948;BME280;63257;55.082;38.772;2023-04-06T04:08:25;100525.94;;;4.51;75.05
71948;BME280;63257;55.082;38.772;2023-04-06T04:10:51;100524.13;;;4.56;74.52
71948;BME280;63257;55.082;38.772;2023-04-06T04:13:18;100520.63;;;4.57;74.74
71948;BME280;63257;55.082;38.772;2023-04-06T04:15:47;100518.81;;;4.59;74.55
71948;BME280;63257;55.082;38.772;2023-04-06T04:18:15;100530.88;;;4.67;74.51
71948;BME280;63257;55.082;38.772;2023-04-06T04:20:44;100524.75;;;4.68;73.94
71948;BME280;63257;55.082;38.772;2023-04-06T04:23:11;100531.53;;;4.76;74.01
71948;BME280;63257;55.082;38.772;2023-04-06T04:25:37;100530.34;;;4.93;73.52
71948;BME280;63257;55.082;38.772;2023-04-06T04:28:03;100528.53;;;4.97;73.39
71948;BME280;63257;55.082;38.772;2023-04-06T04:30:29;100534.44;;;5.06;72.78
71948;BME280;63257;55.082;38.772;2023-04-06T04:32:56;100534.50;;;5.03;72.68
71948;BME280;63257;55.082;38.772;2023-04-06T04:35:23;100535.31;;;5.07;72.43
71948;BME280;63257;55.082;38.772;2023-04-06T04:37:49;100516.34;;;4.96;71.87
71948;BME280;63257;55.082;38.772;2023-04-06T04:40:16;100540.59;;;5.04;71.79
71948;BME280;63257;55.082;38.772;2023-04-06T04:43:03;100542.22;;;5.11;71.75
71948;BME280;63257;55.082;38.772;2023-04-06T04:45:33;100534.91;;;5.25;70.95
71948;BME280;63257;55.082;38.772;2023-04-06T04:48:10;100528.59;;;5.34;70.83
71948;BME280;63257;55.082;38.772;2023-04-06T04:50:47;100529.00;;;5.56;70.30
71948;BME280;63257;55.082;38.772;2023-04-06T04:53:15;100529.97;;;5.52;69.99
71948;BME280;63257;55.082;38.772;2023-04-06T04:55:42;100542.13;;;5.53;69.77
71948;BME280;63257;55.082;38.772;2023-04-06T04:58:10;100517.84;;;5.48;69.56
71948;BME280;63257;55.082;38.772;2023-04-06T05:00:53;100534.84;;;5.68;69.58
71948;BME280;63257;55.082;38.772;2023-04-06T05:03:23;100537.16;;;5.80;69.32
71948;BME280;63257;55.082;38.772;2023-04-06T05:06:19;100536.03;;;5.90;68.64
71948;BME280;63257;55.082;38.772;2023-04-06T05:08:46;100532.38;;;5.99;68.58
71948;BME280;63257;55.082;38.772;2023-04-06T05:11:12;100536.84;;;5.92;67.55
71948;BME280;63257;55.082;38.772;2023-04-06T05:13:43;100520.50;;;5.83;67.85
71948;BME280;63257;55.082;38.772;2023-04-06T05:16:20;100526.25;;;5.99;67.75
71948;BME280;63257;55.082;38.772;2023-04-06T05:18:47;100533.16;;;6.01;67.12
71948;BME280;63257;55.082;38.772;2023-04-06T05:21:13;100532.84;;;6.14;67.06
71948;BME280;63257;55.082;38.772;2023-04-06T05:23:52;100522.38;;;6.14;66.54
71948;BME280;63257;55.082;38.772;2023-04-06T05:26:20;100534.19;;;6.30;66.74
71948;BME280;63257;55.082;38.772;2023-04-06T05:28:48;100537.63;;;6.32;65.80
71948;BME280;63257;55.082;38.772;2023-04-06T05:31:16;100533.28;;;6.31;65.62
71948;BME280;63257;55.082;38.772;2023-04-06T05:33:48;100536.72;;;6.35;65.62
71948;BME280;63257;55.082;38.772;2023-04-06T05:36:16;100525.25;;;6.39;65.34
71948;BME280;63257;55.082;38.772;2023-04-06T05:38:48;100535.50;;;6.47;65.17
71948;BME280;63257;55.082;38.772;2023-04-06T05:41:30;100536.34;;;6.49;65.20
71948;BME280;63257;55.082;38.772;2023-04-06T05:43:56;100533.09;;;6.70;64.63
71948;BME280;63257;55.082;38.772;2023-04-06T05:46:24;100515.16;;;6.55;64.31
71948;BME280;63257;55.082;38.772;2023-04-06T05:48:52;100531.44;;;6.68;64.40
71948;BME280;63257;55.082;38.772;2023-04-06T05:51:22;100526.97;;;6.71;64.13
71948;BME280;63257;55.082;38.772;2023-04-06T05:53:48;100526.66;;;6.82;63.71
71948;BME280;63257;55.082;38.772;2023-04-06T05:56:14;100533.41;;;6.91;63.09
71948;BME280;63257;55.082;38.772;2023-04-06T05:58:41;100516.75;;;6.92;63.13
71948;BME280;63257;55.082;38.772;2023-04-06T06:01:09;100538.91;;;7.13;62.33
71948;BME280;63257;55.082;38.772;2023-04-06T06:03:40;100518.66;;;7.17;62.22
71948;BME280;63257;55.082;38.772;2023-04-06T06:06:06;100523.47;;;7.30;61.56
71948;BME280;63257;55.082;38.772;2023-04-06T06:08:46;100531.03;;;7.41;61.20
71948;BME280;63257;55.082;38.772;2023-04-06T06:11:14;100539.03;;;7.38;61.11
71948;BME280;63257;55.082;38.772;2023-04-06T06:13:41;100535.19;;;7.48;61.51
71948;BME280;63257;55.082;38.772;2023-04-06T06:16:07;100542.44;;;7.69;61.30
71948;BME280;63257;55.082;38.772;2023-04-06T06:18:38;100537.03;;;7.73;60.77
71948;BME280;63257;55.082;38.772;2023-04-06T06:21:04;100517.03;;;7.69;60.29
71948;BME280;63257;55.082;38.772;2023-04-06T06:23:31;100533.66;;;7.96;60.17
71948;BME280;63257;55.082;38.772;2023-04-06T06:25:57;100537.84;;;8.04;59.75
71948;BME280;63257;55.082;38.772;2023-04-06T06:28:24;100537.34;;;7.91;60.02
71948;BME280;63257;55.082;38.772;2023-04-06T06:30:51;100531.84;;;7.98;59.81
71948;BME280;63257;55.082;38.772;2023-04-06T06:33:20;100534.03;;;8.12;59.49
71948;BME280;63257;55.082;38.772;2023-04-06T06:35:48;100542.41;;;8.24;58.57
71948;BME280;63257;55.082;38.772;2023-04-06T06:38:14;100538.63;;;8.32;58.38
71948;BME280;63257;55.082;38.772;2023-04-06T06:40:41;100546.22;;;8.40;58.30
71948;BME280;63257;55.082;38.772;2023-04-06T06:43:07;100528.56;;;8.44;57.95
71948;BME280;63257;55.082;38.772;2023-04-06T06:45:48;100513.59;;;8.46;57.57
71948;BME280;63257;55.082;38.772;2023-04-06T06:48:15;100538.19;;;8.70;57.43
71948;BME280;63257;55.082;38.772;2023-04-06T06:50:41;100538.38;;;8.89;56.71
71948;BME280;63257;55.082;38.772;2023-04-06T06:53:07;100547.00;;;8.94;56.60
71948;BME280;63257;55.082;38.772;2023-04-06T06:55:33;100538.09;;;8.97;56.40
71948;BME280;63257;55.082;38.772;2023-04-06T06:57:59;100552.84;;;9.01;55.68
71948;BME280;63257;55.082;38.772;2023-04-06T07:00:26;100546.94;;;8.96;55.40
71948;BME280;63257;55.082;38.772;2023-04-06T07:02:53;100545.38;;;9.14;56.01
71948;BME280;63257;55.082;38.772;2023-04-06T07:05:19;100549.38;;;9.24;55.12
71948;BME280;63257;55.082;38.772;2023-04-06T07:07:45;100541.78;;;9.16;55.31
71948;BME280;63257;55.082;38.772;2023-04-06T07:10:10;100530.00;;;9.25;55.00
71948;BME280;63257;55.082;38.772;2023-04-06T07:12:38;100543.63;;;9.37;54.58
71948;BME280;63257;55.082;38.772;2023-04-06T07:15:04;100546.25;;;9.37;54.41
71948;BME280;63257;55.082;38.772;2023-04-06T07:17:33;100542.50;;;9.44;54.31
71948;BME280;63257;55.082;38.772;2023-04-06T07:19:59;100533.06;;;9.60;54.12
71948;BME280;63257;55.082;38.772;2023-04-06T07:22:25;100525.44;;;9.75;54.05
71948;BME280;63257;55.082;38.772;2023-04-06T07:24:52;100536.28;;;9.89;53.30
71948;BME280;63257;55.082;38.772;2023-04-06T07:27:17;100517.78;;;9.91;53.38
71948;BME280;63257;55.082;38.772;2023-04-06T07:29:45;100535.91;;;10.19;52.99
71948;BME280;63257;55.082;38.772;2023-04-06T07:32:45;100528.44;;;10.30;52.69
71948;BME280;63257;55.082;38.772;2023-04-06T07:35:11;100529.63;;;10.44;51.92
71948;BME280;63257;55.082;38.772;2023-04-06T07:37:38;100537.97;;;10.33;51.31
71948;BME280;63257;55.082;38.772;2023-04-06T07:40:04;100527.94;;;10.43;51.56
71948;BME280;63257;55.082;38.772;2023-04-06T07:42:30;100523.63;;;10.61;51.46
71948;BME280;63257;55.082;38.772;2023-04-06T07:44:58;100520.28;;;10.76;51.12
71948;BME280;63257;55.082;38.772;2023-04-06T07:47:24;100521.56;;;10.86;50.41
71948;BME280;63257;55.082;38.772;2023-04-06T07:49:50;100533.38;;;10.98;49.98
71948;BME280;63257;55.082;38.772;2023-04-06T07:52:16;100534.81;;;11.06;49.65
71948;BME280;63257;55.082;38.772;2023-04-06T07:54:43;100501.13;;;11.11;50.01
71948;BME280;63257;55.082;38.772;2023-04-06T07:57:09;100523.16;;;11.29;49.59
71948;BME280;63257;55.082;38.772;2023-04-06T07:59:35;100519.88;;;11.43;49.15
71948;BME280;63257;55.082;38.772;2023-04-06T08:02:01;100520.06;;;11.57;48.36
71948;BME280;63257;55.082;38.772;2023-04-06T08:04:27;100500.56;;;11.60;47.98
71948;BME280;63257;55.082;38.772;2023-04-06T08:06:54;100514.59;;;11.79;47.27
71948;BME280;63257;55.082;38.772;2023-04-06T08:09:20;100519.56;;;11.85;47.25
71948;BME280;63257;55.082;38.772;2023-04-06T08:11:46;100498.50;;;11.84;47.48
71948;BME280;63257;55.082;38.772;2023-04-06T08:14:13;100516.06;;;12.04;46.43
71948;BME280;63257;55.082;38.772;2023-04-06T08:16:39;100523.66;;;12.10;45.51
71948;BME280;63257;55.082;38.772;2023-04-06T08:19:05;100491.03;;;11.92;46.14
71948;BME280;63257;55.082;38.772;2023-04-06T08:21:33;100515.44;;;12.16;46.29
71948;BME280;63257;55.082;38.772;2023-04-06T08:23:58;100523.59;;;12.29;45.58
71948;BME280;63257;55.082;38.772;2023-04-06T08:26:24;100513.38;;;12.39;46.08
71948;BME280;63257;55.082;38.772;2023-04-06T08:28:51;100518.91;;;12.52;45.17
71948;BME280;63257;55.082;38.772;2023-04-06T08:31:17;100525.28;;;12.65;45.61
71948;BME280;63257;55.082;38.772;2023-04-06T08:33:43;100515.13;;;12.73;44.51
71948;BME280;63257;55.082;38.772;2023-04-06T08:36:14;100515.91;;;12.76;44.28
71948;BME280;63257;55.082;38.772;2023-04-06T08:38:41;100515.25;;;12.88;44.57
71948;BME280;63257;55.082;38.772;2023-04-06T08:41:12;100503.63;;;12.90;43.85
71948;BME280;63257;55.082;38.772;2023-04-06T08:43:48;100506.88;;;12.96;44.21
71948;BME280;63257;55.082;38.772;2023-04-06T08:46:15;100508.88;;;13.08;44.23
71948;BME280;63257;55.082;38.772;2023-04-06T08:48:42;100516.47;;;13.14;43.17
71948;BME280;63257;55.082;38.772;2023-04-06T08:51:09;100523.75;;;13.11;43.02
71948;BME280;63257;55.082;38.772;2023-04-06T08:53:36;100508.00;;;13.23;43.01
71948;BME280;63257;55.082;38.772;2023-04-06T08:56:03;100516.06;;;13.38;42.68
71948;BME280;63257;55.082;38.772;2023-04-06T08:58:35;100501.78;;;13.40;42.63
71948;BME280;63257;55.082;38.772;2023-04-06T09:01:06;100512.56;;;13.53;42.68
71948;BME280;63257;55.082;38.772;2023-04-06T09:03:37;100503.25;;;13.46;42.51
71948;BME280;63257;55.082;38.772;2023-04-06T09:06:04;100495.28;;;13.46;42.64
71948;BME280;63257;55.082;38.772;2023-04-06T09:08:38;100488.03;;;13.50;41.95
71948;BME280;63257;55.082;38.772;2023-04-06T09:11:04;100490.56;;;13.67;42.29
71948;BME280;63257;55.082;38.772;2023-04-06T09:13:31;100497.75;;;13.96;42.08
71948;BME280;63257;55.082;38.772;2023-04-06T09:16:06;100485.47;;;13.95;41.54
71948;BME280;63257;55.082;38.772;2023-04-06T09:18:33;100491.88;;;13.90;40.44
71948;BME280;63257;55.082;38.772;2023-04-06T09:21:06;100470.25;;;13.82;40.88
71948;BME280;63257;55.082;38.772;2023-04-06T09:24:00;100497.59;;;13.99;40.44
71948;BME280;63257;55.082;38.772;2023-04-06T09:26:27;100498.63;;;13.96;41.01
71948;BME280;63257;55.082;38.772;2023-04-06T09:28:54;100496.88;;;14.11;40.86
71948;BME280;63257;55.082;38.772;2023-04-06T09:31:27;100507.16;;;14.32;40.41
71948;BME280;63257;55.082;38.772;2023-04-06T09:33:59;100500.13;;;14.31;40.04
71948;BME280;63257;55.082;38.772;2023-04-06T09:36:36;100496.16;;;14.23;40.22
71948;BME280;63257;55.082;38.772;2023-04-06T09:39:06;100500.72;;;14.36;40.83
71948;BME280;63257;55.082;38.772;2023-04-06T09:41:34;100484.75;;;14.21;40.45
71948;BME280;63257;55.082;38.772;2023-04-06T09:44:04;100490.66;;;14.27;40.27
71948;BME280;63257;55.082;38.772;2023-04-06T09:49:03;100494.38;;;14.38;39.96
71948;BME280;63257;55.082;38.772;2023-04-06T09:51:49;100497.22;;;14.50;39.28
71948;BME280;63257;55.082;38.772;2023-04-06T09:54:21;100493.03;;;14.60;39.70
71948;BME280;63257;55.082;38.772;2023-04-06T10:05:12;100489.50;;;14.75;38.82
71948;BME280;63257;55.082;38.772;2023-04-06T10:07:42;100488.63;;;14.89;38.82
71948;BME280;63257;55.082;38.772;2023-04-06T10:10:09;100488.72;;;14.88;39.30
71948;BME280;63257;55.082;38.772;2023-04-06T10:12:41;100489.06;;;15.10;39.08
71948;BME280;63257;55.082;38.772;2023-04-06T10:15:08;100493.63;;;15.08;38.24
71948;BME280;63257;55.082;38.772;2023-04-06T10:17:34;100487.81;;;15.16;38.53
71948;BME280;63257;55.082;38.772;2023-04-06T10:20:05;100489.22;;;15.22;38.13
71948;BME280;63257;55.082;38.772;2023-04-06T10:22:44;100488.94;;;15.26;37.99
71948;BME280;63257;55.082;38.772;2023-04-06T10:25:16;100460.94;;;15.21;38.36
71948;BME280;63257;55.082;38.772;2023-04-06T10:27:42;100499.41;;;15.57;37.94
71948;BME280;63257;55.082;38.772;2023-04-06T10:30:09;100476.50;;;15.27;37.74
71948;BME280;63257;55.082;38.772;2023-04-06T10:32:36;100472.44;;;15.07;37.34
71948;BME280;63257;55.082;38.772;2023-04-06T10:35:09;100467.56;;;15.28;38.03
71948;BME280;63257;55.082;38.772;2023-04-06T10:38:02;100481.63;;;15.57;38.22
71948;BME280;63257;55.082;38.772;2023-04-06T10:40:29;100487.28;;;15.80;36.57
71948;BME280;63257;55.082;38.772;2023-04-06T10:45:34;100485.06;;;15.72;37.20
71948;BME280;63257;55.082;38.772;2023-04-06T10:48:18;100484.69;;;15.78;37.08
71948;BME280;63257;55.082;38.772;2023-04-06T10:50:50;100475.47;;;15.84;36.08
71948;BME280;63257;55.082;38.772;2023-04-06T10:53:23;100493.28;;;15.97;36.64
71948;BME280;63257;55.082;38.772;2023-04-06T10:55:56;100492.34;;;16.10;36.68
71948;BME280;63257;55.082;38.772;2023-04-06T10:58:26;100492.28;;;15.98;35.13
71948;BME280;63257;55.082;38.772;2023-04-06T11:00:54;100488.06;;;15.95;36.10
71948;BME280;63257;55.082;38.772;2023-04-06T11:03:21;100497.00;;;15.94;36.67
71948;BME280;63257;55.082;38.772;2023-04-06T11:05:48;100490.56;;;15.84;36.01
71948;BME280;63257;55.082;38.772;2023-04-06T11:08:30;100486.97;;;15.98;36.36
71948;BME280;63257;55.082;38.772;2023-04-06T11:11:10;100492.88;;;16.16;36.30
71948;BME280;63257;55.082;38.772;2023-04-06T11:13:40;100487.34;;;16.19;35.75
71948;BME280;63257;55.082;38.772;2023-04-06T11:16:12;100485.56;;;16.32;35.46
71948;BME280;63257;55.082;38.772;2023-04-06T11:18:38;100493.88;;;16.40;35.08
71948;BME280;63257;55.082;38.772;2023-04-06T11:21:05;100472.34;;;16.43;34.98
71948;BME280;63257;55.082;38.772;2023-04-06T11:23:30;100493.66;;;16.69;33.90
71948;BME280;63257;55.082;38.772;2023-04-06T11:25:56;100467.63;;;16.60;33.63
71948;BME280;63257;55.082;38.772;2023-04-06T11:28:22;100489.41;;;17.17;32.83
71948;BME280;63257;55.082;38.772;2023-04-06T11:30:48;100462.59;;;17.31;32.85
71948;BME280;63257;55.082;38.772;2023-04-06T11:33:20;100466.63;;;17.61;32.01
71948;BME280;63257;55.082;38.772;2023-04-06T11:35:48;100465.53;;;17.88;31.88
71948;BME280;63257;55.082;38.772;2023-04-06T11:38:14;100467.56;;;18.08;31.23
71948;BME280;63257;55.082;38.772;2023-04-06T11:40:40;100482.91;;;18.52;30.32
71948;BME280;63257;55.082;38.772;2023-04-06T11:43:06;100481.94;;;18.30;30.54
71948;BME280;63257;55.082;38.772;2023-04-06T11:45:42;100479.88;;;18.34;30.63
71948;BME280;63257;55.082;38.772;2023-04-06T11:48:18;100472.97;;;18.42;30.56
71948;BME280;63257;55.082;38.772;2023-04-06T11:50:46;100480.03;;;18.77;30.26
71948;BME280;63257;55.082;38.772;2023-04-06T11:53:13;100477.84;;;19.05;30.16
71948;BME280;63257;55.082;38.772;2023-04-06T11:55:39;100472.19;;;19.31;29.51
71948;BME280;63257;55.082;38.772;2023-04-06T11:58:06;100468.88;;;19.50;29.24
71948;BME280;63257;55.082;38.772;2023-04-06T12:00:32;100455.13;;;19.43;28.08
71948;BME280;63257;55.082;38.772;2023-04-06T12:03:00;100447.50;;;19.39;28.39
71948;BME280;63257;55.082;38.772;2023-04-06T12:05:26;100474.34;;;19.81;28.53
71948;BME280;63257;55.082;38.772;2023-04-06T12:07:52;100477.47;;;19.65;27.84
71948;BME280;63257;55.082;38.772;2023-04-06T12:10:18;100467.38;;;19.57;28.15
71948;BME280;63257;55.082;38.772;2023-04-06T12:12:44;100465.41;;;19.92;27.33
71948;BME280;63257;55.082;38.772;2023-04-06T12:15:10;100456.63;;;19.36;27.73
71948;BME280;63257;55.082;38.772;2023-04-06T12:17:36;100447.56;;;18.71;28.54
71948;BME280;63257;55.082;38.772;2023-04-06T12:20:03;100454.50;;;19.07;28.68
71948;BME280;63257;55.082;38.772;2023-04-06T12:22:29;100469.13;;;18.92;28.54
71948;BME280;63257;55.082;38.772;2023-04-06T12:24:55;100461.00;;;19.26;28.17
71948;BME280;63257;55.082;38.772;2023-04-06T12:27:20;100469.47;;;19.10;28.09
71948;BME280;63257;55.082;38.772;2023-04-06T12:29:47;100433.78;;;18.07;29.57
71948;BME280;63257;55.082;38.772;2023-04-06T12:32:13;100441.03;;;18.97;29.04
71948;BME280;63257;55.082;38.772;2023-04-06T12:34:39;100425.56;;;19.12;28.33
71948;BME280;63257;55.082;38.772;2023-04-06T12:37:06;100396.72;;;19.48;27.92
71948;BME280;63257;55.082;38.772;2023-04-06T12:39:32;100414.69;;;19.79;27.50
71948;BME280;63257;55.082;38.772;2023-04-06T12:41:58;100412.41;;;20.16;27.46
71948;BME280;63257;55.082;38.772;2023-04-06T12:44:24;100422.53;;;20.34;26.71
71948;BME280;63257;55.082;38.772;2023-04-06T12:46:50;100416.38;;;20.43;26.87
71948;BME280;63257;55.082;38.772;2023-04-06T12:49:16;100434.78;;;20.89;25.61
71948;BME280;63257;55.082;38.772;2023-04-06T12:51:45;100437.66;;;21.07;25.88
71948;BME280;63257;55.082;38.772;2023-04-06T12:54:16;100461.53;;;21.19;25.55
71948;BME280;63257;55.082;38.772;2023-04-06T12:56:43;100412.91;;;21.03;25.14
71948;BME280;63257;55.082;38.772;2023-04-06T13:03:21;100458.78;;;21.80;23.84
71948;BME280;63257;55.082;38.772;2023-04-06T13:05:50;100450.69;;;21.99;23.53
71948;BME280;63257;55.082;38.772;2023-04-06T13:08:17;100457.38;;;21.85;23.41
71948;BME280;63257;55.082;38.772;2023-04-06T13:10:49;100457.63;;;22.12;23.46
71948;BME280;63257;55.082;38.772;2023-04-06T13:13:17;100451.97;;;21.95;23.38